sensor_id;sensor_type;location;lat;lon;timestamp;P1;durP1;ratioP1;P2;durP2;ratioP2
75732;SDS011;73508;47.424;19.400;2023-12-29T00:00:20;77.03;;;35.40;;
75732;SDS011;73508;47.424;19.400;2023-12-29T00:02:45;75.67;;;32.30;;
75732;SDS011;73508;47.424;19.400;2023-12-29T00:05:11;79.17;;;33.57;;
75732;SDS011;73508;47.424;19.400;2023-12-29T00:07:36;70.23;;;31.23;;
75732;SDS011;73508;47.424;19.400;2023-12-29T00:10:01;77.83;;;33.77;;
75732;SDS011;73508;47.424;19.400;2023-12-29T00:12:27;76.53;;;34.83;;
75732;SDS011;73508;47.424;19.400;2023-12-29T00:14:52;69.73;;;31.93;;
75732;SDS011;73508;47.424;19.400;2023-12-29T00:17:17;65.00;;;31.67;;
75732;SDS011;73508;47.424;19.400;2023-12-29T00:19:43;68.30;;;32.13;;
75732;SDS011;73508;47.424;19.400;2023-12-29T00:22:08;72.70;;;31.30;;
75732;SDS011;73508;47.424;19.400;2023-12-29T00:24:33;62.70;;;31.67;;
75732;SDS011;73508;47.424;19.400;2023-12-29T00:26:59;64.07;;;30.67;;
75732;SDS011;73508;47.424;19.400;2023-12-29T00:29:24;60.00;;;29.63;;
75732;SDS011;73508;47.424;19.400;2023-12-29T00:31:50;67.20;;;31.20;;
75732;SDS011;73508;47.424;19.400;2023-12-29T00:34:15;71.85;;;32.35;;
75732;SDS011;73508;47.424;19.400;2023-12-29T00:36:41;84.37;;;35.50;;
75732;SDS011;73508;47.424;19.400;2023-12-29T00:39:06;77.50;;;35.90;;
75732;SDS011;73508;47.424;19.400;2023-12-29T00:41:32;72.37;;;33.27;;
75732;SDS011;73508;47.424;19.400;2023-12-29T00:43:57;72.72;;;34.10;;
75732;SDS011;73508;47.424;19.400;2023-12-29T00:46:23;70.70;;;33.33;;
75732;SDS011;73508;47.424;19.400;2023-12-29T00:48:48;82.60;;;35.17;;
75732;SDS011;73508;47.424;19.400;2023-12-29T00:51:13;73.87;;;32.43;;
75732;SDS011;73508;47.424;19.400;2023-12-29T00:53:38;63.37;;;30.70;;
75732;SDS011;73508;47.424;19.400;2023-12-29T00:56:09;69.67;;;31.63;;
75732;SDS011;73508;47.424;19.400;2023-12-29T00:58:35;63.67;;;31.35;;
75732;SDS011;73508;47.424;19.400;2023-12-29T01:01:01;64.20;;;30.53;;
75732;SDS011;73508;47.424;19.400;2023-12-29T01:03:26;62.50;;;30.83;;
75732;SDS011;73508;47.424;19.400;2023-12-29T01:05:51;65.40;;;30.50;;
75732;SDS011;73508;47.424;19.400;2023-12-29T01:08:16;72.17;;;32.80;;
75732;SDS011;73508;47.424;19.400;2023-12-29T01:10:42;76.13;;;32.23;;
75732;SDS011;73508;47.424;19.400;2023-12-29T01:13:07;74.37;;;34.27;;
75732;SDS011;73508;47.424;19.400;2023-12-29T01:15:33;76.17;;;35.60;;
75732;SDS011;73508;47.424;19.400;2023-12-29T01:17:58;79.47;;;38.30;;
75732;SDS011;73508;47.424;19.400;2023-12-29T01:20:23;86.70;;;38.67;;
75732;SDS011;73508;47.424;19.400;2023-12-29T01:22:49;75.53;;;36.80;;
75732;SDS011;73508;47.424;19.400;2023-12-29T01:25:14;73.40;;;34.83;;
75732;SDS011;73508;47.424;19.400;2023-12-29T01:27:39;78.07;;;35.23;;
75732;SDS011;73508;47.424;19.400;2023-12-29T01:30:05;79.70;;;36.77;;
75732;SDS011;73508;47.424;19.400;2023-12-29T01:32:31;77.45;;;35.83;;
75732;SDS011;73508;47.424;19.400;2023-12-29T01:34:56;75.67;;;36.07;;
75732;SDS011;73508;47.424;19.400;2023-12-29T01:37:21;74.13;;;36.33;;
75732;SDS011;73508;47.424;19.400;2023-12-29T01:39:47;78.35;;;34.88;;
75732;SDS011;73508;47.424;19.400;2023-12-29T01:42:12;73.90;;;35.13;;
75732;SDS011;73508;47.424;19.400;2023-12-29T01:44:37;72.57;;;35.87;;
75732;SDS011;73508;47.424;19.400;2023-12-29T01:47:03;81.57;;;37.33;;
75732;SDS011;73508;47.424;19.400;2023-12-29T01:49:31;76.85;;;35.90;;
75732;SDS011;73508;47.424;19.400;2023-12-29T01:51:58;77.45;;;37.47;;
75732;SDS011;73508;47.424;19.400;2023-12-29T01:54:25;79.03;;;36.67;;
75732;SDS011;73508;47.424;19.400;2023-12-29T01:57:00;88.05;;;40.05;;
75732;SDS011;73508;47.424;19.400;2023-12-29T01:59:26;81.82;;;38.35;;
75732;SDS011;73508;47.424;19.400;2023-12-29T02:04:40;77.03;;;40.10;;
75732;SDS011;73508;47.424;19.400;2023-12-29T02:07:06;83.00;;;38.40;;
75732;SDS011;73508;47.424;19.400;2023-12-29T02:09:31;78.03;;;39.53;;
75732;SDS011;73508;47.424;19.400;2023-12-29T02:11:59;85.00;;;40.10;;
75732;SDS011;73508;47.424;19.400;2023-12-29T02:14:24;90.12;;;38.97;;
75732;SDS011;73508;47.424;19.400;2023-12-29T02:19:49;80.05;;;36.60;;
75732;SDS011;73508;47.424;19.400;2023-12-29T02:22:15;86.43;;;39.43;;
75732;SDS011;73508;47.424;19.400;2023-12-29T02:24:47;91.60;;;40.50;;
75732;SDS011;73508;47.424;19.400;2023-12-29T02:29:56;110.25;;;40.10;;
75732;SDS011;73508;47.424;19.400;2023-12-29T02:32:29;91.07;;;40.00;;
75732;SDS011;73508;47.424;19.400;2023-12-29T02:34:55;74.73;;;37.10;;
75732;SDS011;73508;47.424;19.400;2023-12-29T02:37:21;89.70;;;39.40;;
75732;SDS011;73508;47.424;19.400;2023-12-29T02:39:46;107.68;;;42.67;;
75732;SDS011;73508;47.424;19.400;2023-12-29T02:42:12;104.20;;;37.17;;
75732;SDS011;73508;47.424;19.400;2023-12-29T02:44:37;90.33;;;35.93;;
75732;SDS011;73508;47.424;19.400;2023-12-29T02:47:02;80.70;;;35.20;;
75732;SDS011;73508;47.424;19.400;2023-12-29T02:49:29;79.78;;;34.47;;
75732;SDS011;73508;47.424;19.400;2023-12-29T02:51:54;76.77;;;32.73;;
75732;SDS011;73508;47.424;19.400;2023-12-29T02:54:19;82.13;;;33.43;;
75732;SDS011;73508;47.424;19.400;2023-12-29T02:56:45;73.53;;;31.63;;
75732;SDS011;73508;47.424;19.400;2023-12-29T02:59:10;72.23;;;30.83;;
75732;SDS011;73508;47.424;19.400;2023-12-29T03:01:35;71.17;;;30.73;;
75732;SDS011;73508;47.424;19.400;2023-12-29T03:04:01;81.05;;;30.65;;
75732;SDS011;73508;47.424;19.400;2023-12-29T03:06:26;66.10;;;30.63;;
75732;SDS011;73508;47.424;19.400;2023-12-29T03:08:51;75.10;;;30.97;;
75732;SDS011;73508;47.424;19.400;2023-12-29T03:11:18;66.27;;;30.07;;
75732;SDS011;73508;47.424;19.400;2023-12-29T03:13:43;71.70;;;30.75;;
75732;SDS011;73508;47.424;19.400;2023-12-29T03:16:09;78.43;;;31.60;;
75732;SDS011;73508;47.424;19.400;2023-12-29T03:18:34;80.47;;;30.80;;
75732;SDS011;73508;47.424;19.400;2023-12-29T03:21:03;71.12;;;30.98;;
75732;SDS011;73508;47.424;19.400;2023-12-29T03:23:29;71.80;;;29.92;;
75732;SDS011;73508;47.424;19.400;2023-12-29T03:25:55;89.40;;;30.97;;
75732;SDS011;73508;47.424;19.400;2023-12-29T03:28:20;75.73;;;30.57;;
75732;SDS011;73508;47.424;19.400;2023-12-29T03:30:45;73.97;;;30.73;;
75732;SDS011;73508;47.424;19.400;2023-12-29T03:33:11;74.60;;;31.33;;
75732;SDS011;73508;47.424;19.400;2023-12-29T03:35:36;79.47;;;34.10;;
75732;SDS011;73508;47.424;19.400;2023-12-29T03:38:01;86.80;;;31.17;;
75732;SDS011;73508;47.424;19.400;2023-12-29T03:40:27;74.37;;;29.17;;
75732;SDS011;73508;47.424;19.400;2023-12-29T03:42:52;76.53;;;28.40;;
75732;SDS011;73508;47.424;19.400;2023-12-29T03:45:18;69.07;;;27.57;;
75732;SDS011;73508;47.424;19.400;2023-12-29T03:47:43;64.27;;;27.50;;
75732;SDS011;73508;47.424;19.400;2023-12-29T03:50:08;65.57;;;27.33;;
75732;SDS011;73508;47.424;19.400;2023-12-29T03:52:34;75.30;;;27.63;;
75732;SDS011;73508;47.424;19.400;2023-12-29T03:54:59;59.60;;;25.90;;
75732;SDS011;73508;47.424;19.400;2023-12-29T03:57:24;56.53;;;26.57;;
75732;SDS011;73508;47.424;19.400;2023-12-29T03:59:50;55.00;;;25.43;;
75732;SDS011;73508;47.424;19.400;2023-12-29T04:02:15;60.27;;;25.03;;
75732;SDS011;73508;47.424;19.400;2023-12-29T04:04:42;49.70;;;24.52;;
75732;SDS011;73508;47.424;19.400;2023-12-29T04:07:08;51.40;;;24.30;;
75732;SDS011;73508;47.424;19.400;2023-12-29T04:09:33;57.90;;;25.33;;
75732;SDS011;73508;47.424;19.400;2023-12-29T04:11:58;51.43;;;24.17;;
75732;SDS011;73508;47.424;19.400;2023-12-29T04:14:24;56.53;;;26.40;;
75732;SDS011;73508;47.424;19.400;2023-12-29T04:16:49;65.47;;;25.95;;
75732;SDS011;73508;47.424;19.400;2023-12-29T04:19:14;51.00;;;24.40;;
75732;SDS011;73508;47.424;19.400;2023-12-29T04:21:40;64.30;;;25.27;;
75732;SDS011;73508;47.424;19.400;2023-12-29T04:24:05;52.97;;;24.43;;
75732;SDS011;73508;47.424;19.400;2023-12-29T04:26:35;54.20;;;24.63;;
75732;SDS011;73508;47.424;19.400;2023-12-29T04:29:01;47.33;;;22.70;;
75732;SDS011;73508;47.424;19.400;2023-12-29T04:31:26;51.55;;;23.55;;
75732;SDS011;73508;47.424;19.400;2023-12-29T04:33:51;55.80;;;23.20;;
75732;SDS011;73508;47.424;19.400;2023-12-29T04:36:17;60.20;;;24.23;;
75732;SDS011;73508;47.424;19.400;2023-12-29T04:38:42;58.00;;;23.43;;
75732;SDS011;73508;47.424;19.400;2023-12-29T04:41:07;61.20;;;22.37;;
75732;SDS011;73508;47.424;19.400;2023-12-29T04:43:33;61.33;;;24.33;;
75732;SDS011;73508;47.424;19.400;2023-12-29T04:45:58;52.20;;;21.90;;
75732;SDS011;73508;47.424;19.400;2023-12-29T04:48:23;50.03;;;21.92;;
75732;SDS011;73508;47.424;19.400;2023-12-29T04:50:49;63.30;;;23.37;;
75732;SDS011;73508;47.424;19.400;2023-12-29T04:53:14;58.47;;;23.77;;
75732;SDS011;73508;47.424;19.400;2023-12-29T04:55:40;64.70;;;24.97;;
75732;SDS011;73508;47.424;19.400;2023-12-29T04:58:05;63.73;;;26.17;;
75732;SDS011;73508;47.424;19.400;2023-12-29T05:00:31;65.87;;;26.55;;
75732;SDS011;73508;47.424;19.400;2023-12-29T05:02:56;61.30;;;24.33;;
75732;SDS011;73508;47.424;19.400;2023-12-29T05:05:21;112.63;;;27.17;;
75732;SDS011;73508;47.424;19.400;2023-12-29T05:07:47;69.10;;;23.77;;
75732;SDS011;73508;47.424;19.400;2023-12-29T05:10:12;67.93;;;24.90;;
75732;SDS011;73508;47.424;19.400;2023-12-29T05:12:37;56.17;;;23.30;;
75732;SDS011;73508;47.424;19.400;2023-12-29T05:15:03;51.87;;;21.17;;
75732;SDS011;73508;47.424;19.400;2023-12-29T05:17:29;51.00;;;22.17;;
75732;SDS011;73508;47.424;19.400;2023-12-29T05:19:55;49.03;;;21.33;;
75732;SDS011;73508;47.424;19.400;2023-12-29T05:22:20;52.83;;;21.37;;
75732;SDS011;73508;47.424;19.400;2023-12-29T05:24:45;46.67;;;21.47;;
75732;SDS011;73508;47.424;19.400;2023-12-29T05:27:11;47.30;;;20.40;;
75732;SDS011;73508;47.424;19.400;2023-12-29T05:29:36;43.85;;;20.77;;
75732;SDS011;73508;47.424;19.400;2023-12-29T05:32:02;51.67;;;21.00;;
75732;SDS011;73508;47.424;19.400;2023-12-29T05:34:28;53.03;;;22.13;;
75732;SDS011;73508;47.424;19.400;2023-12-29T05:36:53;47.42;;;20.52;;
75732;SDS011;73508;47.424;19.400;2023-12-29T05:39:18;51.17;;;21.90;;
75732;SDS011;73508;47.424;19.400;2023-12-29T05:41:44;46.00;;;20.83;;
75732;SDS011;73508;47.424;19.400;2023-12-29T05:44:09;54.50;;;21.10;;
75732;SDS011;73508;47.424;19.400;2023-12-29T05:46:34;57.13;;;21.87;;
75732;SDS011;73508;47.424;19.400;2023-12-29T05:49:00;57.13;;;21.97;;
75732;SDS011;73508;47.424;19.400;2023-12-29T05:51:25;53.67;;;20.63;;
75732;SDS011;73508;47.424;19.400;2023-12-29T05:53:50;81.10;;;23.40;;
75732;SDS011;73508;47.424;19.400;2023-12-29T05:56:16;70.97;;;21.93;;
75732;SDS011;73508;47.424;19.400;2023-12-29T05:58:41;95.50;;;21.20;;
75732;SDS011;73508;47.424;19.400;2023-12-29T06:01:10;62.10;;;21.92;;
75732;SDS011;73508;47.424;19.400;2023-12-29T06:03:35;44.10;;;20.53;;
75732;SDS011;73508;47.424;19.400;2023-12-29T06:06:01;68.50;;;22.33;;
75732;SDS011;73508;47.424;19.400;2023-12-29T06:08:27;70.97;;;25.90;;
75732;SDS011;73508;47.424;19.400;2023-12-29T06:10:52;63.13;;;25.07;;
75732;SDS011;73508;47.424;19.400;2023-12-29T06:13:17;55.50;;;24.08;;
75732;SDS011;73508;47.424;19.400;2023-12-29T06:15:43;61.47;;;23.83;;
75732;SDS011;73508;47.424;19.400;2023-12-29T06:18:08;65.17;;;24.43;;
75732;SDS011;73508;47.424;19.400;2023-12-29T06:20:34;58.80;;;24.33;;
75732;SDS011;73508;47.424;19.400;2023-12-29T06:22:59;57.47;;;24.43;;
75732;SDS011;73508;47.424;19.400;2023-12-29T06:25:24;58.83;;;23.57;;
75732;SDS011;73508;47.424;19.400;2023-12-29T06:27:49;64.40;;;23.75;;
75732;SDS011;73508;47.424;19.400;2023-12-29T06:30:15;76.63;;;22.17;;
75732;SDS011;73508;47.424;19.400;2023-12-29T06:32:41;62.70;;;22.47;;
75732;SDS011;73508;47.424;19.400;2023-12-29T06:35:06;50.47;;;21.25;;
75732;SDS011;73508;47.424;19.400;2023-12-29T06:37:32;59.20;;;22.30;;
75732;SDS011;73508;47.424;19.400;2023-12-29T06:39:58;52.50;;;22.43;;
75732;SDS011;73508;47.424;19.400;2023-12-29T06:42:23;64.30;;;21.73;;
75732;SDS011;73508;47.424;19.400;2023-12-29T06:44:49;72.22;;;21.23;;
75732;SDS011;73508;47.424;19.400;2023-12-29T06:47:14;64.80;;;21.07;;
75732;SDS011;73508;47.424;19.400;2023-12-29T06:49:40;52.23;;;21.43;;
75732;SDS011;73508;47.424;19.400;2023-12-29T06:52:06;69.47;;;21.73;;
75732;SDS011;73508;47.424;19.400;2023-12-29T06:54:31;74.20;;;21.27;;
75732;SDS011;73508;47.424;19.400;2023-12-29T06:56:57;54.43;;;20.97;;
75732;SDS011;73508;47.424;19.400;2023-12-29T06:59:22;58.17;;;20.48;;
75732;SDS011;73508;47.424;19.400;2023-12-29T07:01:48;51.47;;;20.80;;
75732;SDS011;73508;47.424;19.400;2023-12-29T07:04:13;41.90;;;20.47;;
75732;SDS011;73508;47.424;19.400;2023-12-29T07:06:40;56.30;;;20.42;;
75732;SDS011;73508;47.424;19.400;2023-12-29T07:09:06;66.15;;;21.02;;
75732;SDS011;73508;47.424;19.400;2023-12-29T07:11:32;58.45;;;21.05;;
75732;SDS011;73508;47.424;19.400;2023-12-29T07:13:58;54.63;;;20.73;;
75732;SDS011;73508;47.424;19.400;2023-12-29T07:16:23;65.13;;;20.80;;
75732;SDS011;73508;47.424;19.400;2023-12-29T07:18:48;48.73;;;18.87;;
75732;SDS011;73508;47.424;19.400;2023-12-29T07:21:14;48.47;;;19.43;;
75732;SDS011;73508;47.424;19.400;2023-12-29T07:23:41;41.13;;;17.50;;
75732;SDS011;73508;47.424;19.400;2023-12-29T07:26:07;47.07;;;20.23;;
75732;SDS011;73508;47.424;19.400;2023-12-29T07:28:32;47.20;;;19.75;;
75732;SDS011;73508;47.424;19.400;2023-12-29T07:30:57;44.43;;;20.17;;
75732;SDS011;73508;47.424;19.400;2023-12-29T07:33:23;53.67;;;21.33;;
75732;SDS011;73508;47.424;19.400;2023-12-29T07:35:49;52.47;;;20.58;;
75732;SDS011;73508;47.424;19.400;2023-12-29T07:38:14;42.50;;;19.90;;
75732;SDS011;73508;47.424;19.400;2023-12-29T07:40:40;51.23;;;22.57;;
75732;SDS011;73508;47.424;19.400;2023-12-29T07:43:05;60.05;;;24.05;;
75732;SDS011;73508;47.424;19.400;2023-12-29T07:45:30;61.07;;;23.57;;
75732;SDS011;73508;47.424;19.400;2023-12-29T07:47:56;59.87;;;23.33;;
75732;SDS011;73508;47.424;19.400;2023-12-29T07:50:22;71.15;;;25.27;;
75732;SDS011;73508;47.424;19.400;2023-12-29T07:52:47;55.63;;;22.20;;
75732;SDS011;73508;47.424;19.400;2023-12-29T07:55:13;54.03;;;21.87;;
75732;SDS011;73508;47.424;19.400;2023-12-29T07:57:41;61.13;;;22.48;;
75732;SDS011;73508;47.424;19.400;2023-12-29T08:00:06;53.03;;;21.23;;
75732;SDS011;73508;47.424;19.400;2023-12-29T08:02:32;54.38;;;20.95;;
75732;SDS011;73508;47.424;19.400;2023-12-29T08:04:57;56.13;;;23.63;;
75732;SDS011;73508;47.424;19.400;2023-12-29T08:07:23;65.45;;;25.37;;
75732;SDS011;73508;47.424;19.400;2023-12-29T08:09:49;59.87;;;23.93;;
75732;SDS011;73508;47.424;19.400;2023-12-29T08:12:14;55.60;;;22.43;;
75732;SDS011;73508;47.424;19.400;2023-12-29T08:14:39;49.50;;;21.83;;
75732;SDS011;73508;47.424;19.400;2023-12-29T08:17:05;58.00;;;21.23;;
75732;SDS011;73508;47.424;19.400;2023-12-29T08:19:32;69.90;;;21.87;;
75732;SDS011;73508;47.424;19.400;2023-12-29T08:21:57;56.67;;;21.73;;
75732;SDS011;73508;47.424;19.400;2023-12-29T08:24:22;53.70;;;21.00;;
75732;SDS011;73508;47.424;19.400;2023-12-29T08:26:48;56.70;;;20.93;;
75732;SDS011;73508;47.424;19.400;2023-12-29T08:29:13;40.67;;;20.77;;
75732;SDS011;73508;47.424;19.400;2023-12-29T08:31:39;46.65;;;20.50;;
75732;SDS011;73508;47.424;19.400;2023-12-29T08:34:05;44.50;;;21.77;;
75732;SDS011;73508;47.424;19.400;2023-12-29T08:36:30;45.13;;;21.87;;
75732;SDS011;73508;47.424;19.400;2023-12-29T08:38:55;47.60;;;21.97;;
75732;SDS011;73508;47.424;19.400;2023-12-29T08:41:21;40.00;;;21.00;;
75732;SDS011;73508;47.424;19.400;2023-12-29T08:43:47;40.87;;;21.10;;
75732;SDS011;73508;47.424;19.400;2023-12-29T08:46:12;40.60;;;19.70;;
75732;SDS011;73508;47.424;19.400;2023-12-29T08:48:38;41.40;;;20.20;;
75732;SDS011;73508;47.424;19.400;2023-12-29T08:51:03;53.10;;;20.97;;
75732;SDS011;73508;47.424;19.400;2023-12-29T08:53:28;46.67;;;20.33;;
75732;SDS011;73508;47.424;19.400;2023-12-29T08:55:58;47.53;;;20.80;;
75732;SDS011;73508;47.424;19.400;2023-12-29T08:58:23;51.40;;;21.60;;
75732;SDS011;73508;47.424;19.400;2023-12-29T09:00:49;51.67;;;23.20;;
75732;SDS011;73508;47.424;19.400;2023-12-29T09:03:14;54.17;;;22.50;;
75732;SDS011;73508;47.424;19.400;2023-12-29T09:05:39;51.07;;;22.50;;
75732;SDS011;73508;47.424;19.400;2023-12-29T09:08:05;56.97;;;24.55;;
75732;SDS011;73508;47.424;19.400;2023-12-29T09:10:30;54.20;;;24.93;;
75732;SDS011;73508;47.424;19.400;2023-12-29T09:12:55;55.93;;;23.13;;
75732;SDS011;73508;47.424;19.400;2023-12-29T09:15:21;47.60;;;22.97;;
75732;SDS011;73508;47.424;19.400;2023-12-29T09:17:46;63.27;;;24.50;;
75732;SDS011;73508;47.424;19.400;2023-12-29T09:20:11;55.57;;;25.13;;
75732;SDS011;73508;47.424;19.400;2023-12-29T09:22:37;53.43;;;25.43;;
75732;SDS011;73508;47.424;19.400;2023-12-29T09:25:03;55.95;;;24.63;;
75732;SDS011;73508;47.424;19.400;2023-12-29T09:27:29;55.72;;;25.88;;
75732;SDS011;73508;47.424;19.400;2023-12-29T09:29:54;61.33;;;26.07;;
75732;SDS011;73508;47.424;19.400;2023-12-29T09:32:19;60.63;;;28.40;;
75732;SDS011;73508;47.424;19.400;2023-12-29T09:34:45;59.70;;;26.00;;
75732;SDS011;73508;47.424;19.400;2023-12-29T09:37:10;54.23;;;24.33;;
75732;SDS011;73508;47.424;19.400;2023-12-29T09:39:35;55.57;;;24.77;;
75732;SDS011;73508;47.424;19.400;2023-12-29T09:42:01;54.63;;;25.00;;
75732;SDS011;73508;47.424;19.400;2023-12-29T09:44:29;62.53;;;24.17;;
75732;SDS011;73508;47.424;19.400;2023-12-29T09:46:57;55.00;;;24.37;;
75732;SDS011;73508;47.424;19.400;2023-12-29T09:49:25;47.30;;;23.08;;
75732;SDS011;73508;47.424;19.400;2023-12-29T09:51:52;45.63;;;23.67;;
75732;SDS011;73508;47.424;19.400;2023-12-29T09:54:18;44.83;;;23.17;;
75732;SDS011;73508;47.424;19.400;2023-12-29T09:56:43;51.43;;;24.53;;
75732;SDS011;73508;47.424;19.400;2023-12-29T09:59:09;50.47;;;26.10;;
75732;SDS011;73508;47.424;19.400;2023-12-29T10:01:36;48.72;;;24.75;;
75732;SDS011;73508;47.424;19.400;2023-12-29T10:04:02;50.50;;;25.52;;
75732;SDS011;73508;47.424;19.400;2023-12-29T10:06:27;52.50;;;26.73;;
75732;SDS011;73508;47.424;19.400;2023-12-29T10:08:56;51.13;;;25.95;;
75732;SDS011;73508;47.424;19.400;2023-12-29T10:11:22;49.50;;;25.75;;
75732;SDS011;73508;47.424;19.400;2023-12-29T10:13:53;49.13;;;26.12;;
75732;SDS011;73508;47.424;19.400;2023-12-29T10:16:24;47.23;;;25.80;;
75732;SDS011;73508;47.424;19.400;2023-12-29T10:19:10;46.95;;;25.08;;
75732;SDS011;73508;47.424;19.400;2023-12-29T10:21:55;44.17;;;23.87;;
75732;SDS011;73508;47.424;19.400;2023-12-29T10:24:23;44.22;;;23.02;;
75732;SDS011;73508;47.424;19.400;2023-12-29T10:26:49;43.03;;;22.00;;
75732;SDS011;73508;47.424;19.400;2023-12-29T10:29:15;39.83;;;21.50;;
75732;SDS011;73508;47.424;19.400;2023-12-29T10:31:40;43.10;;;23.33;;
75732;SDS011;73508;47.424;19.400;2023-12-29T10:34:19;42.23;;;22.70;;
75732;SDS011;73508;47.424;19.400;2023-12-29T10:36:47;41.78;;;21.87;;
75732;SDS011;73508;47.424;19.400;2023-12-29T10:39:14;45.12;;;23.05;;
75732;SDS011;73508;47.424;19.400;2023-12-29T10:41:40;42.88;;;23.70;;
75732;SDS011;73508;47.424;19.400;2023-12-29T10:44:08;43.30;;;24.10;;
75732;SDS011;73508;47.424;19.400;2023-12-29T10:46:33;43.58;;;24.70;;
75732;SDS011;73508;47.424;19.400;2023-12-29T10:49:06;46.97;;;24.93;;
75732;SDS011;73508;47.424;19.400;2023-12-29T10:51:35;49.55;;;25.10;;
75732;SDS011;73508;47.424;19.400;2023-12-29T10:54:02;46.47;;;24.98;;
75732;SDS011;73508;47.424;19.400;2023-12-29T10:56:27;45.53;;;23.70;;
75732;SDS011;73508;47.424;19.400;2023-12-29T10:59:11;40.20;;;23.08;;
75732;SDS011;73508;47.424;19.400;2023-12-29T11:01:37;42.92;;;22.35;;
75732;SDS011;73508;47.424;19.400;2023-12-29T11:04:04;38.07;;;21.70;;
75732;SDS011;73508;47.424;19.400;2023-12-29T11:06:42;38.35;;;21.52;;
75732;SDS011;73508;47.424;19.400;2023-12-29T11:09:12;38.87;;;21.10;;
75732;SDS011;73508;47.424;19.400;2023-12-29T11:11:37;41.88;;;20.90;;
75732;SDS011;73508;47.424;19.400;2023-12-29T11:14:02;40.70;;;21.50;;
75732;SDS011;73508;47.424;19.400;2023-12-29T11:16:29;37.13;;;20.63;;
75732;SDS011;73508;47.424;19.400;2023-12-29T11:18:55;37.83;;;20.73;;
75732;SDS011;73508;47.424;19.400;2023-12-29T11:21:21;36.58;;;20.20;;
75732;SDS011;73508;47.424;19.400;2023-12-29T11:23:48;37.17;;;19.70;;
75732;SDS011;73508;47.424;19.400;2023-12-29T11:26:13;34.63;;;18.83;;
75732;SDS011;73508;47.424;19.400;2023-12-29T11:28:39;33.63;;;18.08;;
75732;SDS011;73508;47.424;19.400;2023-12-29T11:31:04;33.60;;;17.43;;
75732;SDS011;73508;47.424;19.400;2023-12-29T11:33:31;29.87;;;16.73;;
75732;SDS011;73508;47.424;19.400;2023-12-29T11:36:05;30.50;;;15.67;;
75732;SDS011;73508;47.424;19.400;2023-12-29T11:38:45;27.98;;;15.88;;
75732;SDS011;73508;47.424;19.400;2023-12-29T11:43:57;26.62;;;14.82;;
75732;SDS011;73508;47.424;19.400;2023-12-29T11:46:39;26.85;;;14.95;;
75732;SDS011;73508;47.424;19.400;2023-12-29T11:49:08;27.27;;;14.77;;
75732;SDS011;73508;47.424;19.400;2023-12-29T11:51:40;27.65;;;14.98;;
75732;SDS011;73508;47.424;19.400;2023-12-29T11:54:08;26.23;;;14.80;;
75732;SDS011;73508;47.424;19.400;2023-12-29T11:56:35;27.75;;;14.32;;
75732;SDS011;73508;47.424;19.400;2023-12-29T11:59:16;26.03;;;14.63;;
75732;SDS011;73508;47.424;19.400;2023-12-29T12:01:49;28.27;;;15.82;;
75732;SDS011;73508;47.424;19.400;2023-12-29T12:07:05;28.65;;;15.57;;
75732;SDS011;73508;47.424;19.400;2023-12-29T12:09:31;28.85;;;16.73;;
75732;SDS011;73508;47.424;19.400;2023-12-29T12:11:59;28.77;;;17.20;;
75732;SDS011;73508;47.424;19.400;2023-12-29T12:17:10;33.40;;;19.50;;
75732;SDS011;73508;47.424;19.400;2023-12-29T12:19:35;36.00;;;20.55;;
75732;SDS011;73508;47.424;19.400;2023-12-29T12:22:01;41.03;;;21.87;;
75732;SDS011;73508;47.424;19.400;2023-12-29T12:24:27;37.60;;;21.37;;
75732;SDS011;73508;47.424;19.400;2023-12-29T12:26:53;37.60;;;21.65;;
75732;SDS011;73508;47.424;19.400;2023-12-29T12:29:19;41.20;;;21.35;;
75732;SDS011;73508;47.424;19.400;2023-12-29T12:31:57;39.57;;;22.97;;
75732;SDS011;73508;47.424;19.400;2023-12-29T12:34:22;40.28;;;22.27;;
75732;SDS011;73508;47.424;19.400;2023-12-29T12:36:51;35.37;;;21.37;;
75732;SDS011;73508;47.424;19.400;2023-12-29T12:39:17;37.78;;;22.50;;
75732;SDS011;73508;47.424;19.400;2023-12-29T12:41:43;36.90;;;22.37;;
75732;SDS011;73508;47.424;19.400;2023-12-29T12:44:13;38.83;;;21.30;;
75732;SDS011;73508;47.424;19.400;2023-12-29T12:46:44;36.67;;;21.27;;
75732;SDS011;73508;47.424;19.400;2023-12-29T12:49:15;38.53;;;22.48;;
75732;SDS011;73508;47.424;19.400;2023-12-29T12:51:41;34.97;;;22.13;;
75732;SDS011;73508;47.424;19.400;2023-12-29T12:54:07;41.80;;;22.10;;
75732;SDS011;73508;47.424;19.400;2023-12-29T12:56:33;40.33;;;24.63;;
75732;SDS011;73508;47.424;19.400;2023-12-29T12:59:00;39.15;;;22.30;;
75732;SDS011;73508;47.424;19.400;2023-12-29T13:01:27;41.30;;;22.33;;
75732;SDS011;73508;47.424;19.400;2023-12-29T13:03:52;37.43;;;22.10;;
75732;SDS011;73508;47.424;19.400;2023-12-29T13:06:18;35.90;;;20.73;;
75732;SDS011;73508;47.424;19.400;2023-12-29T13:08:45;36.13;;;20.70;;
75732;SDS011;73508;47.424;19.400;2023-12-29T13:11:10;34.10;;;19.67;;
75732;SDS011;73508;47.424;19.400;2023-12-29T13:13:38;33.05;;;19.48;;
75732;SDS011;73508;47.424;19.400;2023-12-29T13:16:05;32.17;;;19.73;;
75732;SDS011;73508;47.424;19.400;2023-12-29T13:18:31;31.75;;;19.70;;
75732;SDS011;73508;47.424;19.400;2023-12-29T13:20:56;36.15;;;20.17;;
75732;SDS011;73508;47.424;19.400;2023-12-29T13:23:25;34.00;;;19.03;;
75732;SDS011;73508;47.424;19.400;2023-12-29T13:25:51;34.90;;;20.00;;
75732;SDS011;73508;47.424;19.400;2023-12-29T13:28:19;34.13;;;20.33;;
75732;SDS011;73508;47.424;19.400;2023-12-29T13:30:44;34.83;;;20.07;;
75732;SDS011;73508;47.424;19.400;2023-12-29T13:33:13;34.43;;;19.80;;
75732;SDS011;73508;47.424;19.400;2023-12-29T13:35:50;30.40;;;19.17;;
75732;SDS011;73508;47.424;19.400;2023-12-29T13:38:27;34.53;;;20.05;;
75732;SDS011;73508;47.424;19.400;2023-12-29T13:40:56;36.90;;;20.97;;
75732;SDS011;73508;47.424;19.400;2023-12-29T13:43:25;35.30;;;19.33;;
75732;SDS011;73508;47.424;19.400;2023-12-29T13:45:51;35.92;;;20.77;;
75732;SDS011;73508;47.424;19.400;2023-12-29T13:48:16;34.70;;;20.10;;
75732;SDS011;73508;47.424;19.400;2023-12-29T13:50:48;37.40;;;19.90;;
75732;SDS011;73508;47.424;19.400;2023-12-29T13:53:20;32.83;;;20.00;;
75732;SDS011;73508;47.424;19.400;2023-12-29T13:55:47;32.42;;;19.55;;
75732;SDS011;73508;47.424;19.400;2023-12-29T13:58:12;32.93;;;19.67;;
75732;SDS011;73508;47.424;19.400;2023-12-29T14:00:41;34.10;;;20.27;;
75732;SDS011;73508;47.424;19.400;2023-12-29T14:03:14;34.30;;;20.48;;
75732;SDS011;73508;47.424;19.400;2023-12-29T14:05:50;37.70;;;20.88;;
75732;SDS011;73508;47.424;19.400;2023-12-29T14:08:24;33.10;;;20.12;;
75732;SDS011;73508;47.424;19.400;2023-12-29T14:10:50;41.40;;;21.13;;
75732;SDS011;73508;47.424;19.400;2023-12-29T14:13:16;36.03;;;20.02;;
75732;SDS011;73508;47.424;19.400;2023-12-29T14:15:42;37.93;;;20.60;;
75732;SDS011;73508;47.424;19.400;2023-12-29T14:20:37;39.88;;;21.70;;
75732;SDS011;73508;47.424;19.400;2023-12-29T14:23:03;38.30;;;21.83;;